sensor_id;sensor_type;location;lat;lon;timestamp;P1;durP1;ratioP1;P2;durP2;ratioP2
6973;SDS011;3527;52.376;8.990;2023-02-21T00:01:37;60.20;;;32.43;;
6973;SDS011;3527;52.376;8.990;2023-02-21T00:04:22;59.63;;;31.93;;
6973;SDS011;3527;52.376;8.990;2023-02-21T00:07:07;56.67;;;31.00;;
6973;SDS011;3527;52.376;8.990;2023-02-21T00:09:52;58.77;;;33.13;;
6973;SDS011;3527;52.376;8.990;2023-02-21T00:12:38;60.53;;;32.70;;
6973;SDS011;3527;52.376;8.990;2023-02-21T00:15:23;56.17;;;31.73;;
6973;SDS011;3527;52.376;8.990;2023-02-21T00:18:08;59.87;;;32.27;;
6973;SDS011;3527;52.376;8.990;2023-02-21T00:20:53;58.43;;;32.53;;
6973;SDS011;3527;52.376;8.990;2023-02-21T00:23:39;55.73;;;30.47;;
6973;SDS011;3527;52.376;8.990;2023-02-21T00:26:24;58.40;;;30.80;;
6973;SDS011;3527;52.376;8.990;2023-02-21T00:29:10;54.60;;;31.10;;
6973;SDS011;3527;52.376;8.990;2023-02-21T00:31:55;58.03;;;29.47;;
6973;SDS011;3527;52.376;8.990;2023-02-21T00:34:40;48.20;;;29.20;;
6973;SDS011;3527;52.376;8.990;2023-02-21T00:37:25;49.27;;;27.73;;
6973;SDS011;3527;52.376;8.990;2023-02-21T00:40:11;54.20;;;30.60;;
6973;SDS011;3527;52.376;8.990;2023-02-21T00:42:57;52.30;;;28.83;;
6973;SDS011;3527;52.376;8.990;2023-02-21T00:45:43;53.50;;;29.50;;
6973;SDS011;3527;52.376;8.990;2023-02-21T00:48:28;54.73;;;30.70;;
6973;SDS011;3527;52.376;8.990;2023-02-21T00:51:14;54.00;;;31.23;;
6973;SDS011;3527;52.376;8.990;2023-02-21T00:53:59;53.17;;;29.40;;
6973;SDS011;3527;52.376;8.990;2023-02-21T00:56:44;54.67;;;30.10;;
6973;SDS011;3527;52.376;8.990;2023-02-21T00:59:30;56.27;;;30.93;;
6973;SDS011;3527;52.376;8.990;2023-02-21T01:02:15;52.30;;;29.50;;
6973;SDS011;3527;52.376;8.990;2023-02-21T01:05:00;55.43;;;30.63;;
6973;SDS011;3527;52.376;8.990;2023-02-21T01:07:45;57.33;;;32.17;;
6973;SDS011;3527;52.376;8.990;2023-02-21T01:10:31;58.40;;;31.03;;
6973;SDS011;3527;52.376;8.990;2023-02-21T01:13:16;60.23;;;31.57;;
6973;SDS011;3527;52.376;8.990;2023-02-21T01:16:02;56.73;;;31.23;;
6973;SDS011;3527;52.376;8.990;2023-02-21T01:18:50;57.03;;;31.30;;
6973;SDS011;3527;52.376;8.990;2023-02-21T01:21:35;58.37;;;31.97;;
6973;SDS011;3527;52.376;8.990;2023-02-21T01:24:20;54.90;;;30.70;;
6973;SDS011;3527;52.376;8.990;2023-02-21T01:27:06;57.77;;;32.20;;
6973;SDS011;3527;52.376;8.990;2023-02-21T01:29:51;55.37;;;32.40;;
6973;SDS011;3527;52.376;8.990;2023-02-21T01:32:36;60.67;;;32.10;;
6973;SDS011;3527;52.376;8.990;2023-02-21T01:35:21;55.97;;;31.87;;
6973;SDS011;3527;52.376;8.990;2023-02-21T01:38:06;57.87;;;30.73;;
6973;SDS011;3527;52.376;8.990;2023-02-21T01:40:52;56.50;;;32.53;;
6973;SDS011;3527;52.376;8.990;2023-02-21T01:43:37;54.63;;;31.00;;
6973;SDS011;3527;52.376;8.990;2023-02-21T01:46:22;57.67;;;30.67;;
6973;SDS011;3527;52.376;8.990;2023-02-21T01:49:08;56.20;;;31.10;;
6973;SDS011;3527;52.376;8.990;2023-02-21T01:52:02;59.77;;;32.37;;
6973;SDS011;3527;52.376;8.990;2023-02-21T01:54:49;59.23;;;30.23;;
6973;SDS011;3527;52.376;8.990;2023-02-21T01:57:37;53.73;;;29.30;;
6973;SDS011;3527;52.376;8.990;2023-02-21T02:00:23;56.37;;;31.60;;
6973;SDS011;3527;52.376;8.990;2023-02-21T02:03:10;52.97;;;30.50;;
6973;SDS011;3527;52.376;8.990;2023-02-21T02:06:17;51.80;;;28.53;;
6973;SDS011;3527;52.376;8.990;2023-02-21T02:09:16;56.50;;;31.50;;
6973;SDS011;3527;52.376;8.990;2023-02-21T02:14:59;58.50;;;31.03;;
6973;SDS011;3527;52.376;8.990;2023-02-21T02:40:08;55.23;;;31.77;;
6973;SDS011;3527;52.376;8.990;2023-02-21T02:48:35;63.00;;;31.73;;
6973;SDS011;3527;52.376;8.990;2023-02-21T02:51:07;56.90;;;32.13;;
6973;SDS011;3527;52.376;8.990;2023-02-21T02:53:38;57.23;;;31.70;;
6973;SDS011;3527;52.376;8.990;2023-02-21T02:56:05;56.53;;;30.73;;
6973;SDS011;3527;52.376;8.990;2023-02-21T02:58:49;58.43;;;31.07;;
6973;SDS011;3527;52.376;8.990;2023-02-21T03:11:30;53.37;;;31.00;;
6973;SDS011;3527;52.376;8.990;2023-02-21T03:16:46;58.17;;;31.43;;
6973;SDS011;3527;52.376;8.990;2023-02-21T03:19:24;60.33;;;33.00;;
6973;SDS011;3527;52.376;8.990;2023-02-21T03:21:58;59.13;;;31.93;;
6973;SDS011;3527;52.376;8.990;2023-02-21T03:24:27;64.83;;;34.20;;
6973;SDS011;3527;52.376;8.990;2023-02-21T03:26:55;55.97;;;31.67;;
6973;SDS011;3527;52.376;8.990;2023-02-21T03:29:27;61.23;;;32.23;;
6973;SDS011;3527;52.376;8.990;2023-02-21T03:31:55;58.80;;;32.90;;
6973;SDS011;3527;52.376;8.990;2023-02-21T03:34:39;61.37;;;33.50;;
6973;SDS011;3527;52.376;8.990;2023-02-21T03:37:08;64.03;;;32.93;;
6973;SDS011;3527;52.376;8.990;2023-02-21T03:39:43;58.67;;;34.03;;
6973;SDS011;3527;52.376;8.990;2023-02-21T03:42:10;64.60;;;33.47;;
6973;SDS011;3527;52.376;8.990;2023-02-21T03:44:37;63.93;;;34.57;;
6973;SDS011;3527;52.376;8.990;2023-02-21T03:47:03;60.20;;;32.77;;
6973;SDS011;3527;52.376;8.990;2023-02-21T03:49:30;56.40;;;31.60;;
6973;SDS011;3527;52.376;8.990;2023-02-21T03:51:57;59.30;;;32.90;;
6973;SDS011;3527;52.376;8.990;2023-02-21T03:54:24;59.93;;;31.43;;
6973;SDS011;3527;52.376;8.990;2023-02-21T03:56:51;56.17;;;31.83;;
6973;SDS011;3527;52.376;8.990;2023-02-21T03:59:17;62.37;;;33.40;;
6973;SDS011;3527;52.376;8.990;2023-02-21T04:01:44;59.13;;;32.13;;
6973;SDS011;3527;52.376;8.990;2023-02-21T04:04:11;64.70;;;32.40;;
6973;SDS011;3527;52.376;8.990;2023-02-21T04:06:38;62.20;;;33.47;;
6973;SDS011;3527;52.376;8.990;2023-02-21T04:09:05;55.03;;;31.30;;
6973;SDS011;3527;52.376;8.990;2023-02-21T04:11:31;62.63;;;32.80;;
6973;SDS011;3527;52.376;8.990;2023-02-21T04:13:58;59.60;;;31.63;;
6973;SDS011;3527;52.376;8.990;2023-02-21T04:16:25;59.87;;;31.37;;
6973;SDS011;3527;52.376;8.990;2023-02-21T04:18:52;58.83;;;31.73;;
6973;SDS011;3527;52.376;8.990;2023-02-21T04:21:18;56.40;;;32.63;;
6973;SDS011;3527;52.376;8.990;2023-02-21T04:23:45;59.93;;;32.20;;
6973;SDS011;3527;52.376;8.990;2023-02-21T04:26:12;59.30;;;31.63;;
6973;SDS011;3527;52.376;8.990;2023-02-21T04:28:38;58.70;;;32.40;;
6973;SDS011;3527;52.376;8.990;2023-02-21T04:31:05;61.80;;;33.57;;
6973;SDS011;3527;52.376;8.990;2023-02-21T04:33:32;63.70;;;33.27;;
6973;SDS011;3527;52.376;8.990;2023-02-21T04:35:59;67.40;;;33.93;;
6973;SDS011;3527;52.376;8.990;2023-02-21T04:38:25;64.83;;;32.93;;
6973;SDS011;3527;52.376;8.990;2023-02-21T04:40:52;68.20;;;34.67;;
6973;SDS011;3527;52.376;8.990;2023-02-21T04:43:19;70.93;;;35.23;;
6973;SDS011;3527;52.376;8.990;2023-02-21T04:45:47;75.30;;;35.80;;
6973;SDS011;3527;52.376;8.990;2023-02-21T04:48:13;64.67;;;33.60;;
6973;SDS011;3527;52.376;8.990;2023-02-21T04:50:40;77.53;;;33.73;;
6973;SDS011;3527;52.376;8.990;2023-02-21T04:53:07;69.13;;;34.23;;
6973;SDS011;3527;52.376;8.990;2023-02-21T04:55:34;67.27;;;35.17;;
6973;SDS011;3527;52.376;8.990;2023-02-21T04:58:00;64.23;;;35.63;;
6973;SDS011;3527;52.376;8.990;2023-02-21T05:00:27;68.40;;;34.30;;
6973;SDS011;3527;52.376;8.990;2023-02-21T05:02:54;73.57;;;34.00;;
6973;SDS011;3527;52.376;8.990;2023-02-21T05:05:21;73.00;;;35.60;;
6973;SDS011;3527;52.376;8.990;2023-02-21T05:07:47;68.83;;;35.47;;
6973;SDS011;3527;52.376;8.990;2023-02-21T05:10:15;71.20;;;35.53;;
6973;SDS011;3527;52.376;8.990;2023-02-21T05:12:42;73.67;;;35.37;;
6973;SDS011;3527;52.376;8.990;2023-02-21T05:15:11;75.53;;;37.67;;
6973;SDS011;3527;52.376;8.990;2023-02-21T05:17:39;66.90;;;34.43;;
6973;SDS011;3527;52.376;8.990;2023-02-21T05:20:05;76.33;;;35.03;;
6973;SDS011;3527;52.376;8.990;2023-02-21T05:22:40;72.40;;;34.00;;
6973;SDS011;3527;52.376;8.990;2023-02-21T05:25:18;69.20;;;35.67;;
6973;SDS011;3527;52.376;8.990;2023-02-21T05:27:46;72.67;;;38.33;;
6973;SDS011;3527;52.376;8.990;2023-02-21T05:30:15;74.83;;;36.50;;
6973;SDS011;3527;52.376;8.990;2023-02-21T05:32:43;77.07;;;37.10;;
6973;SDS011;3527;52.376;8.990;2023-02-21T05:35:12;79.07;;;37.50;;
6973;SDS011;3527;52.376;8.990;2023-02-21T05:37:40;78.57;;;37.90;;
6973;SDS011;3527;52.376;8.990;2023-02-21T05:40:09;78.90;;;37.93;;
6973;SDS011;3527;52.376;8.990;2023-02-21T05:42:38;76.93;;;36.63;;
6973;SDS011;3527;52.376;8.990;2023-02-21T05:45:04;74.93;;;37.57;;
6973;SDS011;3527;52.376;8.990;2023-02-21T05:47:32;77.20;;;37.20;;
6973;SDS011;3527;52.376;8.990;2023-02-21T05:50:00;74.93;;;36.03;;
6973;SDS011;3527;52.376;8.990;2023-02-21T05:52:27;77.50;;;36.63;;
6973;SDS011;3527;52.376;8.990;2023-02-21T05:54:54;75.30;;;36.27;;
6973;SDS011;3527;52.376;8.990;2023-02-21T05:57:21;78.93;;;37.27;;
6973;SDS011;3527;52.376;8.990;2023-02-21T05:59:47;76.37;;;39.00;;
6973;SDS011;3527;52.376;8.990;2023-02-21T06:02:14;81.83;;;37.13;;
6973;SDS011;3527;52.376;8.990;2023-02-21T06:04:41;72.87;;;36.53;;
6973;SDS011;3527;52.376;8.990;2023-02-21T06:07:08;72.27;;;36.90;;
6973;SDS011;3527;52.376;8.990;2023-02-21T06:09:35;75.07;;;38.17;;
6973;SDS011;3527;52.376;8.990;2023-02-21T06:12:01;73.53;;;36.97;;
6973;SDS011;3527;52.376;8.990;2023-02-21T06:14:28;78.13;;;37.10;;
6973;SDS011;3527;52.376;8.990;2023-02-21T06:16:55;81.07;;;36.57;;
6973;SDS011;3527;52.376;8.990;2023-02-21T06:19:22;72.87;;;35.83;;
6973;SDS011;3527;52.376;8.990;2023-02-21T06:21:48;67.83;;;34.63;;
6973;SDS011;3527;52.376;8.990;2023-02-21T06:24:15;66.73;;;35.63;;
6973;SDS011;3527;52.376;8.990;2023-02-21T06:26:42;73.70;;;35.80;;
6973;SDS011;3527;52.376;8.990;2023-02-21T06:29:10;71.60;;;34.70;;
6973;SDS011;3527;52.376;8.990;2023-02-21T06:31:37;71.23;;;34.00;;
6973;SDS011;3527;52.376;8.990;2023-02-21T06:34:04;71.30;;;35.03;;
6973;SDS011;3527;52.376;8.990;2023-02-21T06:36:31;68.47;;;34.57;;
6973;SDS011;3527;52.376;8.990;2023-02-21T06:38:57;70.33;;;34.43;;
6973;SDS011;3527;52.376;8.990;2023-02-21T06:41:25;60.93;;;33.33;;
6973;SDS011;3527;52.376;8.990;2023-02-21T06:43:57;64.90;;;34.17;;
6973;SDS011;3527;52.376;8.990;2023-02-21T06:46:26;68.30;;;33.93;;
6973;SDS011;3527;52.376;8.990;2023-02-21T06:48:54;65.83;;;34.90;;
6973;SDS011;3527;52.376;8.990;2023-02-21T06:51:21;66.70;;;34.20;;
6973;SDS011;3527;52.376;8.990;2023-02-21T06:53:55;65.10;;;33.00;;
6973;SDS011;3527;52.376;8.990;2023-02-21T06:56:22;68.70;;;36.60;;
6973;SDS011;3527;52.376;8.990;2023-02-21T06:58:49;62.40;;;33.53;;
6973;SDS011;3527;52.376;8.990;2023-02-21T07:01:16;60.63;;;32.80;;
6973;SDS011;3527;52.376;8.990;2023-02-21T07:03:43;68.43;;;32.83;;
6973;SDS011;3527;52.376;8.990;2023-02-21T07:06:11;64.57;;;32.40;;
6973;SDS011;3527;52.376;8.990;2023-02-21T07:08:38;63.03;;;30.97;;
6973;SDS011;3527;52.376;8.990;2023-02-21T07:11:05;65.83;;;33.00;;
6973;SDS011;3527;52.376;8.990;2023-02-21T07:13:32;66.77;;;33.67;;
6973;SDS011;3527;52.376;8.990;2023-02-21T07:16:00;62.03;;;33.63;;
6973;SDS011;3527;52.376;8.990;2023-02-21T07:18:28;61.53;;;31.27;;
6973;SDS011;3527;52.376;8.990;2023-02-21T07:20:55;62.50;;;34.27;;
6973;SDS011;3527;52.376;8.990;2023-02-21T07:23:21;62.43;;;33.23;;
6973;SDS011;3527;52.376;8.990;2023-02-21T07:25:48;64.63;;;33.53;;
6973;SDS011;3527;52.376;8.990;2023-02-21T07:28:15;66.37;;;33.03;;
6973;SDS011;3527;52.376;8.990;2023-02-21T07:30:42;64.50;;;32.33;;
6973;SDS011;3527;52.376;8.990;2023-02-21T07:33:09;63.47;;;31.93;;
6973;SDS011;3527;52.376;8.990;2023-02-21T07:35:36;62.93;;;33.33;;
6973;SDS011;3527;52.376;8.990;2023-02-21T07:38:03;58.23;;;32.07;;
6973;SDS011;3527;52.376;8.990;2023-02-21T07:40:30;57.83;;;30.77;;
6973;SDS011;3527;52.376;8.990;2023-02-21T07:42:57;63.00;;;32.93;;
6973;SDS011;3527;52.376;8.990;2023-02-21T07:45:24;65.80;;;31.83;;
6973;SDS011;3527;52.376;8.990;2023-02-21T07:47:53;63.87;;;33.00;;
6973;SDS011;3527;52.376;8.990;2023-02-21T07:50:20;62.13;;;31.53;;
6973;SDS011;3527;52.376;8.990;2023-02-21T07:52:49;69.03;;;34.37;;
6973;SDS011;3527;52.376;8.990;2023-02-21T07:55:15;63.40;;;32.43;;
6973;SDS011;3527;52.376;8.990;2023-02-21T07:57:42;60.63;;;32.97;;
6973;SDS011;3527;52.376;8.990;2023-02-21T08:00:10;66.27;;;31.93;;
6973;SDS011;3527;52.376;8.990;2023-02-21T08:02:37;62.90;;;31.77;;
6973;SDS011;3527;52.376;8.990;2023-02-21T08:05:04;66.07;;;31.83;;
6973;SDS011;3527;52.376;8.990;2023-02-21T08:07:32;64.10;;;34.50;;
6973;SDS011;3527;52.376;8.990;2023-02-21T08:09:59;74.83;;;34.87;;
6973;SDS011;3527;52.376;8.990;2023-02-21T08:12:25;70.23;;;34.17;;
6973;SDS011;3527;52.376;8.990;2023-02-21T08:14:52;68.20;;;34.30;;
6973;SDS011;3527;52.376;8.990;2023-02-21T08:17:19;66.47;;;33.00;;
6973;SDS011;3527;52.376;8.990;2023-02-21T08:19:46;74.53;;;36.50;;
6973;SDS011;3527;52.376;8.990;2023-02-21T08:22:13;74.37;;;35.17;;
6973;SDS011;3527;52.376;8.990;2023-02-21T08:24:39;69.80;;;34.00;;
6973;SDS011;3527;52.376;8.990;2023-02-21T08:27:06;71.13;;;35.20;;
6973;SDS011;3527;52.376;8.990;2023-02-21T08:29:33;67.87;;;33.67;;
6973;SDS011;3527;52.376;8.990;2023-02-21T08:32:00;67.63;;;34.87;;
6973;SDS011;3527;52.376;8.990;2023-02-21T08:34:27;72.83;;;34.53;;
6973;SDS011;3527;52.376;8.990;2023-02-21T08:36:55;65.43;;;33.20;;
6973;SDS011;3527;52.376;8.990;2023-02-21T08:39:22;73.10;;;35.13;;
6973;SDS011;3527;52.376;8.990;2023-02-21T08:41:49;62.93;;;34.10;;
6973;SDS011;3527;52.376;8.990;2023-02-21T08:44:17;69.00;;;33.60;;
6973;SDS011;3527;52.376;8.990;2023-02-21T08:46:47;64.77;;;30.57;;
6973;SDS011;3527;52.376;8.990;2023-02-21T08:49:15;62.13;;;32.07;;
6973;SDS011;3527;52.376;8.990;2023-02-21T08:51:42;63.27;;;31.70;;
6973;SDS011;3527;52.376;8.990;2023-02-21T08:54:09;55.57;;;31.03;;
6973;SDS011;3527;52.376;8.990;2023-02-21T08:56:36;58.80;;;31.80;;
6973;SDS011;3527;52.376;8.990;2023-02-21T08:59:02;59.50;;;29.67;;
6973;SDS011;3527;52.376;8.990;2023-02-21T09:01:31;57.37;;;30.70;;
6973;SDS011;3527;52.376;8.990;2023-02-21T09:04:00;56.77;;;28.87;;
6973;SDS011;3527;52.376;8.990;2023-02-21T09:06:27;55.53;;;28.40;;
6973;SDS011;3527;52.376;8.990;2023-02-21T09:08:54;52.00;;;27.80;;
6973;SDS011;3527;52.376;8.990;2023-02-21T09:11:21;52.07;;;26.70;;
6973;SDS011;3527;52.376;8.990;2023-02-21T09:13:48;44.30;;;25.67;;
6973;SDS011;3527;52.376;8.990;2023-02-21T09:16:15;48.03;;;26.23;;
6973;SDS011;3527;52.376;8.990;2023-02-21T09:18:42;42.93;;;24.57;;
6973;SDS011;3527;52.376;8.990;2023-02-21T09:21:08;43.90;;;25.27;;
6973;SDS011;3527;52.376;8.990;2023-02-21T09:23:35;48.10;;;26.97;;
6973;SDS011;3527;52.376;8.990;2023-02-21T09:26:02;43.57;;;24.47;;
6973;SDS011;3527;52.376;8.990;2023-02-21T09:28:29;45.23;;;24.60;;
6973;SDS011;3527;52.376;8.990;2023-02-21T09:30:57;41.50;;;23.43;;
6973;SDS011;3527;52.376;8.990;2023-02-21T09:33:23;42.93;;;21.87;;
6973;SDS011;3527;52.376;8.990;2023-02-21T09:35:50;41.07;;;23.50;;
6973;SDS011;3527;52.376;8.990;2023-02-21T09:38:19;40.70;;;23.17;;
6973;SDS011;3527;52.376;8.990;2023-02-21T09:40:58;41.97;;;22.87;;
6973;SDS011;3527;52.376;8.990;2023-02-21T09:43:34;37.20;;;22.30;;
6973;SDS011;3527;52.376;8.990;2023-02-21T09:46:22;41.77;;;23.33;;
6973;SDS011;3527;52.376;8.990;2023-02-21T09:48:51;38.53;;;23.27;;
6973;SDS011;3527;52.376;8.990;2023-02-21T09:51:19;36.20;;;21.87;;
6973;SDS011;3527;52.376;8.990;2023-02-21T09:53:46;41.27;;;22.93;;
6973;SDS011;3527;52.376;8.990;2023-02-21T09:58:47;38.07;;;21.60;;
6973;SDS011;3527;52.376;8.990;2023-02-21T10:01:21;38.03;;;21.73;;
6973;SDS011;3527;52.376;8.990;2023-02-21T10:04:05;38.70;;;21.13;;
6973;SDS011;3527;52.376;8.990;2023-02-21T10:06:50;35.47;;;21.43;;
6973;SDS011;3527;52.376;8.990;2023-02-21T10:09:37;37.23;;;21.70;;
6973;SDS011;3527;52.376;8.990;2023-02-21T10:14:47;35.47;;;20.50;;
6973;SDS011;3527;52.376;8.990;2023-02-21T10:17:41;38.80;;;21.73;;
6973;SDS011;3527;52.376;8.990;2023-02-21T10:20:31;36.80;;;21.80;;
6973;SDS011;3527;52.376;8.990;2023-02-21T10:23:05;36.70;;;21.97;;
6973;SDS011;3527;52.376;8.990;2023-02-21T10:25:41;36.03;;;20.37;;
6973;SDS011;3527;52.376;8.990;2023-02-21T10:28:16;35.07;;;21.13;;
6973;SDS011;3527;52.376;8.990;2023-02-21T10:30:47;36.10;;;21.90;;
6973;SDS011;3527;52.376;8.990;2023-02-21T10:33:18;40.67;;;23.57;;
6973;SDS011;3527;52.376;8.990;2023-02-21T10:35:44;39.63;;;21.80;;
6973;SDS011;3527;52.376;8.990;2023-02-21T10:38:12;35.73;;;21.17;;
6973;SDS011;3527;52.376;8.990;2023-02-21T10:40:53;39.20;;;21.80;;
6973;SDS011;3527;52.376;8.990;2023-02-21T10:45:54;32.70;;;20.17;;
6973;SDS011;3527;52.376;8.990;2023-02-21T10:48:27;33.37;;;19.97;;
6973;SDS011;3527;52.376;8.990;2023-02-21T10:53:33;27.60;;;17.67;;
6973;SDS011;3527;52.376;8.990;2023-02-21T10:56:08;28.83;;;16.63;;
6973;SDS011;3527;52.376;8.990;2023-02-21T10:58:35;27.50;;;17.27;;
6973;SDS011;3527;52.376;8.990;2023-02-21T11:01:13;28.97;;;16.97;;
6973;SDS011;3527;52.376;8.990;2023-02-21T11:03:50;25.43;;;16.03;;
6973;SDS011;3527;52.376;8.990;2023-02-21T11:06:25;26.10;;;16.53;;
6973;SDS011;3527;52.376;8.990;2023-02-21T11:08:59;27.77;;;16.33;;
6973;SDS011;3527;52.376;8.990;2023-02-21T11:11:33;27.73;;;17.07;;
6973;SDS011;3527;52.376;8.990;2023-02-21T11:14:18;22.60;;;15.13;;
6973;SDS011;3527;52.376;8.990;2023-02-21T11:19:36;23.73;;;15.27;;
6973;SDS011;3527;52.376;8.990;2023-02-21T11:22:19;25.07;;;15.37;;
6973;SDS011;3527;52.376;8.990;2023-02-21T11:24:50;24.30;;;15.23;;
6973;SDS011;3527;52.376;8.990;2023-02-21T11:27:20;22.97;;;15.23;;
6973;SDS011;3527;52.376;8.990;2023-02-21T11:29:48;24.60;;;14.83;;
6973;SDS011;3527;52.376;8.990;2023-02-21T11:35:03;23.90;;;14.30;;
6973;SDS011;3527;52.376;8.990;2023-02-21T11:37:45;26.33;;;15.83;;
6973;SDS011;3527;52.376;8.990;2023-02-21T11:46:09;23.53;;;14.07;;
6973;SDS011;3527;52.376;8.990;2023-02-21T11:51:53;23.33;;;15.07;;
6973;SDS011;3527;52.376;8.990;2023-02-21T11:54:26;23.03;;;14.60;;
6973;SDS011;3527;52.376;8.990;2023-02-21T11:57:07;25.17;;;14.97;;
6973;SDS011;3527;52.376;8.990;2023-02-21T12:08:37;23.80;;;15.07;;
6973;SDS011;3527;52.376;8.990;2023-02-21T12:14:15;24.57;;;15.00;;
6973;SDS011;3527;52.376;8.990;2023-02-21T12:19:22;21.67;;;14.57;;
6973;SDS011;3527;52.376;8.990;2023-02-21T12:27:31;26.53;;;16.03;;
6973;SDS011;3527;52.376;8.990;2023-02-21T12:33:02;25.73;;;15.57;;
6973;SDS011;3527;52.376;8.990;2023-02-21T12:47:08;31.40;;;17.17;;
6973;SDS011;3527;52.376;8.990;2023-02-21T12:52:52;28.60;;;16.90;;
6973;SDS011;3527;52.376;8.990;2023-02-21T12:55:24;30.50;;;17.97;;
6973;SDS011;3527;52.376;8.990;2023-02-21T12:58:12;31.40;;;18.00;;
6973;SDS011;3527;52.376;8.990;2023-02-21T13:06:05;33.10;;;17.83;;
6973;SDS011;3527;52.376;8.990;2023-02-21T13:11:54;30.77;;;17.27;;
6973;SDS011;3527;52.376;8.990;2023-02-21T13:14:27;33.43;;;18.30;;
6973;SDS011;3527;52.376;8.990;2023-02-21T13:16:59;32.90;;;18.60;;
6973;SDS011;3527;52.376;8.990;2023-02-21T13:19:30;32.43;;;19.37;;
6973;SDS011;3527;52.376;8.990;2023-02-21T13:25:32;36.37;;;20.77;;
6973;SDS011;3527;52.376;8.990;2023-02-21T13:28:23;33.60;;;20.10;;
6973;SDS011;3527;52.376;8.990;2023-02-21T13:30:56;33.97;;;20.20;;
6973;SDS011;3527;52.376;8.990;2023-02-21T13:42:02;35.63;;;19.07;;
6973;SDS011;3527;52.376;8.990;2023-02-21T13:56:18;39.57;;;21.60;;
6973;SDS011;3527;52.376;8.990;2023-02-21T13:58:40;40.63;;;21.20;;
6973;SDS011;3527;52.376;8.990;2023-02-21T14:01:15;37.23;;;20.87;;
6973;SDS011;3527;52.376;8.990;2023-02-21T14:03:51;38.33;;;21.27;;
6973;SDS011;3527;52.376;8.990;2023-02-21T14:06:30;38.30;;;19.17;;
6973;SDS011;3527;52.376;8.990;2023-02-21T14:09:16;36.43;;;18.37;;
6973;SDS011;3527;52.376;8.990;2023-02-21T14:11:48;34.63;;;19.27;;
6973;SDS011;3527;52.376;8.990;2023-02-21T14:14:19;39.27;;;20.60;;
6973;SDS011;3527;52.376;8.990;2023-02-21T14:17:08;37.43;;;20.03;;
6973;SDS011;3527;52.376;8.990;2023-02-21T14:24:44;37.07;;;19.03;;
6973;SDS011;3527;52.376;8.990;2023-02-21T14:29:44;32.97;;;18.43;;
6973;SDS011;3527;52.376;8.990;2023-02-21T14:35:22;31.73;;;16.73;;
6973;SDS011;3527;52.376;8.990;2023-02-21T14:38:04;34.20;;;16.63;;
6973;SDS011;3527;52.376;8.990;2023-02-21T14:40:45;34.50;;;18.57;;
6973;SDS011;3527;52.376;8.990;2023-02-21T15:00:44;32.97;;;17.70;;
6973;SDS011;3527;52.376;8.990;2023-02-21T15:03:34;36.37;;;17.63;;
6973;SDS011;3527;52.376;8.990;2023-02-21T15:06:09;32.53;;;17.30;;
6973;SDS011;3527;52.376;8.990;2023-02-21T15:08:45;31.87;;;16.83;;
6973;SDS011;3527;52.376;8.990;2023-02-21T15:11:17;38.10;;;17.33;;
6973;SDS011;3527;52.376;8.990;2023-02-21T15:13:46;35.17;;;17.77;;
6973;SDS011;3527;52.376;8.990;2023-02-21T15:16:13;31.00;;;16.90;;
6973;SDS011;3527;52.376;8.990;2023-02-21T15:18:58;32.67;;;16.73;;
6973;SDS011;3527;52.376;8.990;2023-02-21T15:21:26;33.03;;;17.13;;
6973;SDS011;3527;52.376;8.990;2023-02-21T15:24:00;32.13;;;17.00;;
6973;SDS011;3527;52.376;8.990;2023-02-21T15:26:38;32.20;;;17.23;;
6973;SDS011;3527;52.376;8.990;2023-02-21T15:29:06;31.87;;;17.63;;
6973;SDS011;3527;52.376;8.990;2023-02-21T15:31:43;36.00;;;18.33;;
6973;SDS011;3527;52.376;8.990;2023-02-21T15:34:18;34.37;;;18.13;;
6973;SDS011;3527;52.376;8.990;2023-02-21T15:36:54;37.13;;;18.37;;
6973;SDS011;3527;52.376;8.990;2023-02-21T15:42:00;35.27;;;19.17;;
6973;SDS011;3527;52.376;8.990;2023-02-21T15:44:44;36.77;;;17.73;;
6973;SDS011;3527;52.376;8.990;2023-02-21T15:47:20;35.73;;;18.63;;
6973;SDS011;3527;52.376;8.990;2023-02-21T15:50:08;36.90;;;17.83;;
6973;SDS011;3527;52.376;8.990;2023-02-21T15:52:43;40.07;;;19.73;;
6973;SDS011;3527;52.376;8.990;2023-02-21T15:55:13;36.20;;;19.30;;
6973;SDS011;3527;52.376;8.990;2023-02-21T15:57:40;38.20;;;18.27;;
6973;SDS011;3527;52.376;8.990;2023-02-21T16:00:22;35.50;;;18.13;;
6973;SDS011;3527;52.376;8.990;2023-02-21T16:02:50;37.93;;;19.43;;
6973;SDS011;3527;52.376;8.990;2023-02-21T16:05:28;38.23;;;19.40;;
6973;SDS011;3527;52.376;8.990;2023-02-21T16:07:59;39.60;;;19.53;;
6973;SDS011;3527;52.376;8.990;2023-02-21T16:10:30;42.87;;;20.83;;
6973;SDS011;3527;52.376;8.990;2023-02-21T16:12:57;45.87;;;20.93;;
6973;SDS011;3527;52.376;8.990;2023-02-21T16:15:30;39.90;;;20.50;;
6973;SDS011;3527;52.376;8.990;2023-02-21T16:18:01;43.00;;;20.20;;
6973;SDS011;3527;52.376;8.990;2023-02-21T16:20:41;39.70;;;21.03;;
6973;SDS011;3527;52.376;8.990;2023-02-21T16:28:40;44.77;;;20.20;;
6973;SDS011;3527;52.376;8.990;2023-02-21T16:31:09;44.97;;;20.80;;
6973;SDS011;3527;52.376;8.990;2023-02-21T16:33:42;45.80;;;20.60;;
6973;SDS011;3527;52.376;8.990;2023-02-21T16:36:16;49.03;;;22.20;;
6973;SDS011;3527;52.376;8.990;2023-02-21T16:38:47;53.90;;;24.17;;
6973;SDS011;3527;52.376;8.990;2023-02-21T16:41:13;45.93;;;22.43;;
6973;SDS011;3527;52.376;8.990;2023-02-21T16:43:41;48.00;;;22.33;;
6973;SDS011;3527;52.376;8.990;2023-02-21T16:46:08;48.47;;;21.50;;
6973;SDS011;3527;52.376;8.990;2023-02-21T16:48:35;48.40;;;22.73;;
6973;SDS011;3527;52.376;8.990;2023-02-21T16:51:03;52.77;;;23.10;;
6973;SDS011;3527;52.376;8.990;2023-02-21T16:53:35;48.57;;;22.17;;
6973;SDS011;3527;52.376;8.990;2023-02-21T16:56:01;44.40;;;21.27;;
6973;SDS011;3527;52.376;8.990;2023-02-21T16:58:37;43.93;;;21.33;;
6973;SDS011;3527;52.376;8.990;2023-02-21T17:01:14;48.57;;;21.47;;
6973;SDS011;3527;52.376;8.990;2023-02-21T17:03:46;49.67;;;22.83;;
6973;SDS011;3527;52.376;8.990;2023-02-21T17:06:14;49.17;;;21.00;;
6973;SDS011;3527;52.376;8.990;2023-02-21T17:08:44;46.00;;;21.27;;
6973;SDS011;3527;52.376;8.990;2023-02-21T17:11:11;47.13;;;22.07;;
6973;SDS011;3527;52.376;8.990;2023-02-21T17:13:38;45.47;;;20.90;;
6973;SDS011;3527;52.376;8.990;2023-02-21T17:16:05;41.77;;;20.63;;
6973;SDS011;3527;52.376;8.990;2023-02-21T17:18:32;43.13;;;20.07;;
6973;SDS011;3527;52.376;8.990;2023-02-21T17:20:59;42.20;;;19.83;;
6973;SDS011;3527;52.376;8.990;2023-02-21T17:23:26;41.33;;;20.30;;
6973;SDS011;3527;52.376;8.990;2023-02-21T17:25:53;42.27;;;19.57;;
6973;SDS011;3527;52.376;8.990;2023-02-21T17:28:20;40.87;;;20.13;;
6973;SDS011;3527;52.376;8.990;2023-02-21T17:30:47;44.63;;;20.87;;
6973;SDS011;3527;52.376;8.990;2023-02-21T17:33:14;45.40;;;21.13;;
6973;SDS011;3527;52.376;8.990;2023-02-21T17:35:41;41.90;;;20.63;;
6973;SDS011;3527;52.376;8.990;2023-02-21T17:38:07;42.27;;;21.50;;
6973;SDS011;3527;52.376;8.990;2023-02-21T17:40:34;40.43;;;20.53;;
6973;SDS011;3527;52.376;8.990;2023-02-21T17:43:01;39.90;;;19.87;;
6973;SDS011;3527;52.376;8.990;2023-02-21T17:45:34;37.47;;;18.97;;
6973;SDS011;3527;52.376;8.990;2023-02-21T17:48:04;37.70;;;18.97;;
6973;SDS011;3527;52.376;8.990;2023-02-21T17:50:31;39.37;;;18.43;;
6973;SDS011;3527;52.376;8.990;2023-02-21T17:52:58;40.37;;;19.87;;
6973;SDS011;3527;52.376;8.990;2023-02-21T17:55:25;41.30;;;18.77;;
6973;SDS011;3527;52.376;8.990;2023-02-21T17:57:54;35.83;;;19.57;;
6973;SDS011;3527;52.376;8.990;2023-02-21T18:00:22;34.50;;;18.17;;
6973;SDS011;3527;52.376;8.990;2023-02-21T18:02:51;33.57;;;17.40;;
6973;SDS011;3527;52.376;8.990;2023-02-21T18:05:19;35.10;;;18.20;;
6973;SDS011;3527;52.376;8.990;2023-02-21T18:07:47;31.90;;;17.40;;
6973;SDS011;3527;52.376;8.990;2023-02-21T18:10:20;36.40;;;17.80;;
6973;SDS011;3527;52.376;8.990;2023-02-21T18:12:49;34.53;;;17.80;;
6973;SDS011;3527;52.376;8.990;2023-02-21T18:15:18;36.33;;;18.87;;